Time;durP1;ratioP1;P1;durP2;ratioP2;P2;SDS_P1;SDS_P2;PMS_P1;PMS_P2;Temp;Humidity;BMP_temperature;BMP_pressure;BME280_temperature;BME280_humidity;BME280_pressure;Samples;Min_cycle;Max_cycle;Signal;HPM_P1;HPM_P2
2024/03/16 00:01:19;;;;;;;40.60;29.40;;;;;;;9.32;74.51;100612.50;108948;1260;66457;-61
2024/03/16 00:03:46;;;;;;;41.80;27.80;;;;;;;9.32;74.53;100608.64;108484;1257;138538;-61
2024/03/16 00:06:14;;;;;;;53.10;34.80;;;;;;;9.32;74.43;100609.33;108813;1258;60059;-61
2024/03/16 00:08:41;;;;;;;45.80;28.70;;;;;;;9.30;74.49;100611.04;106952;1260;138756;-61
2024/03/16 00:11:08;;;;;;;44.40;29.70;;;;;;;9.26;74.46;100610.56;104839;1259;73762;-61
2024/03/16 00:13:36;;;;;;;43.20;29.30;;;;;;;9.25;74.39;100611.77;104850;1261;64876;-61
2024/03/16 00:16:03;;;;;;;44.20;29.60;;;;;;;9.22;74.46;100607.11;108859;1255;139509;-62
2024/03/16 00:18:30;;;;;;;47.30;31.20;;;;;;;9.17;74.39;100606.48;108855;1257;58958;-61
2024/03/16 00:20:56;;;;;;;45.40;29.50;;;;;;;9.11;74.36;100615.05;108742;1262;138997;-61
2024/03/16 00:23:23;;;;;;;46.60;29.40;;;;;;;9.04;74.42;100615.36;107023;1260;75818;-60
2024/03/16 00:25:50;;;;;;;48.00;31.60;;;;;;;9.01;74.52;100614.60;104823;1258;66036;-61
2024/03/16 00:28:17;;;;;;;50.40;32.10;;;;;;;8.95;74.44;100612.65;108787;1256;138111;-61
2024/03/16 00:30:44;;;;;;;50.30;33.30;;;;;;;8.90;74.61;100614.27;108932;1256;59063;-61
2024/03/16 00:33:10;;;;;;;48.10;32.40;;;;;;;8.86;74.63;100615.89;108884;1260;140423;-62
2024/03/16 00:35:37;;;;;;;46.80;31.00;;;;;;;8.80;74.67;100619.02;108924;1256;75784;-61
2024/03/16 00:38:04;;;;;;;46.80;30.80;;;;;;;8.73;74.60;100619.18;108966;1257;72938;-62
2024/03/16 00:40:30;;;;;;;46.70;29.90;;;;;;;8.66;74.72;100618.95;108701;1257;138748;-62
2024/03/16 00:42:59;;;;;;;43.30;29.20;;;;;;;8.59;74.79;100620.15;108811;1257;58876;-60
2024/03/16 00:45:25;;;;;;;42.30;29.20;;;;;;;8.50;74.74;100617.27;108845;1257;139238;-61
2024/03/16 00:47:52;;;;;;;44.60;30.40;;;;;;;8.44;74.84;100613.37;108999;1256;73183;-60
2024/03/16 00:50:18;;;;;;;49.90;28.60;;;;;;;8.39;75.11;100611.79;109013;1257;66347;-60
2024/03/16 00:52:45;;;;;;;41.10;28.10;;;;;;;8.34;75.13;100609.02;106832;1262;138209;-62
2024/03/16 00:55:11;;;;;;;46.40;29.40;;;;;;;8.28;75.20;100607.06;104882;1257;62258;-61
2024/03/16 00:57:38;;;;;;;46.80;29.90;;;;;;;8.23;75.39;100606.91;104628;1261;138988;-61
2024/03/16 01:00:09;;;;;;;47.50;30.80;;;;;;;8.20;75.44;100607.88;104763;1261;76161;-62
2024/03/16 01:02:35;;;;;;;53.60;33.40;;;;;;;8.18;75.72;100603.45;104562;1262;138700;-61
2024/03/16 01:05:02;;;;;;;50.50;34.10;;;;;;;8.18;75.93;100598.56;104814;1260;73330;-60
2024/03/16 01:07:29;;;;;;;73.10;44.00;;;;;;;8.20;76.04;100600.88;104835;1261;60384;-61
2024/03/16 01:09:56;;;;;;;61.70;39.00;;;;;;;8.21;76.23;100596.39;104731;1258;138024;-60
2024/03/16 01:12:22;;;;;;;61.50;35.30;;;;;;;8.24;76.29;100591.58;104645;1263;75153;-60
2024/03/16 01:14:49;;;;;;;56.30;35.30;;;;;;;8.25;76.30;100588.47;104729;1260;138088;-61
2024/03/16 01:17:16;;;;;;;52.20;34.10;;;;;;;8.25;76.36;100584.95;104860;1260;61351;-60
2024/03/16 01:19:43;;;;;;;55.10;33.70;;;;;;;8.22;76.35;100584.87;104817;1258;61389;-60
2024/03/16 01:22:11;;;;;;;58.70;34.10;;;;;;;8.17;76.37;100580.01;108807;1257;140402;-61
2024/03/16 01:24:37;;;;;;;50.90;32.50;;;;;;;8.12;76.37;100580.72;108941;1256;73488;-61
2024/03/16 01:27:04;;;;;;;50.30;32.10;;;;;;;8.09;76.46;100586.54;108850;1257;139260;-60
2024/03/16 01:29:30;;;;;;;45.50;30.70;;;;;;;8.05;76.43;100584.70;108998;1257;71838;-60
2024/03/16 01:31:57;;;;;;;48.70;31.50;;;;;;;8.02;76.52;100586.85;108937;1256;60145;-60
2024/03/16 01:34:23;;;;;;;52.30;33.10;;;;;;;8.00;76.61;100582.42;108918;1256;139755;-60
2024/03/16 01:36:50;;;;;;;46.00;31.30;;;;;;;7.98;76.58;100583.92;107130;1257;74235;-61
2024/03/16 01:39:16;;;;;;;49.80;32.50;;;;;;;7.95;76.65;100581.05;104737;1261;138764;-60
2024/03/16 01:41:43;;;;;;;55.60;33.90;;;;;;;7.92;76.70;100581.31;104815;1257;72874;-61
2024/03/16 01:44:10;;;;;;;54.30;34.10;;;;;;;7.89;76.84;100580.14;104759;1270;61293;-61
2024/03/16 01:46:41;;;;;;;49.20;32.00;;;;;;;7.84;76.78;100572.45;108729;1257;139294;-60
2024/03/16 01:49:08;;;;;;;51.80;33.20;;;;;;;7.78;76.80;100569.98;108814;1256;73729;-62
2024/03/16 01:51:36;;;;;;;50.10;33.00;;;;;;;7.72;76.89;100569.45;105752;1257;139300;-61
2024/03/16 01:54:04;;;;;;;51.40;32.20;;;;;;;7.68;76.98;100572.43;104582;1262;73120;-60
2024/03/16 01:56:31;;;;;;;54.90;33.70;;;;;;;7.62;77.07;100567.89;104724;1260;139259;-60
2024/03/16 01:58:58;;;;;;;53.70;33.00;;;;;;;7.56;77.14;100567.70;108931;1256;60132;-60
2024/03/16 02:01:25;;;;;;;49.20;31.70;;;;;;;7.52;77.31;100569.98;109028;1257;74254;-61
2024/03/16 02:03:54;;;;;;;52.80;34.20;;;;;;;7.49;77.28;100571.27;107271;1257;138556;-60
2024/03/16 02:06:21;;;;;;;50.90;33.40;;;;;;;7.44;77.36;100566.56;104567;1261;72860;-60
2024/03/16 02:08:47;;;;;;;55.30;33.50;;;;;;;7.41;77.54;100570.13;105129;1257;138877;-61
2024/03/16 02:11:14;;;;;;;53.40;34.00;;;;;;;7.38;77.68;100570.04;104742;1260;60023;-60
2024/03/16 02:13:40;;;;;;;54.10;35.70;;;;;;;7.36;77.84;100570.30;104749;1256;72635;-60
2024/03/16 02:16:07;;;;;;;55.80;33.80;;;;;;;7.34;77.96;100567.28;104682;1257;138474;-61
2024/03/16 02:18:33;;;;;;;59.20;35.20;;;;;;;7.32;78.13;100566.67;104823;1258;72136;-61
2024/03/16 02:21:00;;;;;;;55.50;34.30;;;;;;;7.32;78.21;100567.52;104943;1260;139232;-61
2024/03/16 02:23:27;;;;;;;63.60;35.20;;;;;;;7.30;78.22;100565.02;105022;1260;61302;-60
2024/03/16 02:25:53;;;;;;;58.60;35.30;;;;;;;7.27;78.25;100563.17;104872;1258;75970;-60
2024/03/16 02:28:20;;;;;;;58.80;35.70;;;;;;;7.22;78.31;100564.74;104640;1260;138927;-60
2024/03/16 02:30:46;;;;;;;58.10;35.80;;;;;;;7.17;78.39;100567.02;108848;1257;71795;-61
2024/03/16 02:33:14;;;;;;;56.90;35.40;;;;;;;7.12;78.40;100562.30;104629;1260;138975;-60
2024/03/16 02:35:40;;;;;;;57.10;34.50;;;;;;;7.09;78.56;100560.27;104885;1258;61275;-61
2024/03/16 02:38:09;;;;;;;61.00;36.80;;;;;;;7.05;78.55;100560.64;104826;1257;73687;-60
2024/03/16 02:40:36;;;;;;;66.10;38.00;;;;;;;6.99;78.66;100560.61;104675;1257;139713;-61
2024/03/16 02:43:03;;;;;;;69.90;40.00;;;;;;;6.94;78.77;100564.27;104796;1260;72196;-60
2024/03/16 02:45:30;;;;;;;85.50;44.30;;;;;;;6.91;78.87;100566.94;104730;1258;138981;-60
2024/03/16 02:47:57;;;;;;;80.90;43.20;;;;;;;6.87;78.95;100572.90;104731;1257;61495;-61
2024/03/16 02:50:24;;;;;;;68.40;38.50;;;;;;;6.83;79.02;100572.77;108918;1256;77309;-60
2024/03/16 02:52:51;;;;;;;65.00;38.00;;;;;;;6.80;79.06;100574.73;108977;1260;65692;-60
2024/03/16 02:55:17;;;;;;;60.10;34.90;;;;;;;6.76;79.06;100576.86;109027;1256;74068;-65
2024/03/16 02:57:44;;;;;;;63.80;38.20;;;;;;;6.72;79.22;100575.84;108839;1257;138738;-65
2024/03/16 03:00:11;;;;;;;55.70;33.30;;;;;;;6.70;79.31;100582.05;108960;1256;61946;-65
2024/03/16 03:02:38;;;;;;;50.70;34.10;;;;;;;6.69;79.34;100585.31;108906;1256;138704;-64
2024/03/16 03:05:09;;;;;;;58.60;33.80;;;;;;;6.68;79.54;100580.40;108919;1257;65614;-64
2024/03/16 03:07:35;;;;;;;51.20;32.30;;;;;;;6.68;79.51;100581.61;108992;1255;73485;-64
2024/03/16 03:10:02;;;;;;;52.60;32.90;;;;;;;6.66;79.55;100582.59;108780;1256;138504;-64
2024/03/16 03:12:29;;;;;;;51.00;34.40;;;;;;;6.66;79.67;100580.84;108986;1257;59132;-64
2024/03/16 03:14:56;;;;;;;51.50;33.40;;;;;;;6.67;79.77;100582.77;108931;1256;138720;-62
2024/03/16 03:17:22;;;;;;;56.70;34.70;;;;;;;6.67;79.86;100584.20;108980;1256;66706;-62
2024/03/16 03:19:49;;;;;;;59.40;36.00;;;;;;;6.69;80.06;100587.93;108992;1256;72283;-62
2024/03/16 03:22:16;;;;;;;53.00;34.00;;;;;;;6.72;80.18;100589.45;108786;1257;138626;-62
2024/03/16 03:24:43;;;;;;;54.60;34.90;;;;;;;6.73;80.33;100588.80;108968;1256;59174;-63
2024/03/16 03:27:09;;;;;;;52.30;34.40;;;;;;;6.74;80.28;100589.54;108797;1255;138785;-63
2024/03/16 03:29:36;;;;;;;54.30;32.30;;;;;;;6.75;80.40;100589.55;109014;1256;66162;-62
2024/03/16 03:32:02;;;;;;;53.30;35.10;;;;;;;6.76;80.41;100586.44;108936;1257;71579;-62
2024/03/16 03:34:29;;;;;;;49.60;33.90;;;;;;;6.75;80.38;100585.70;108774;1256;138427;-62
2024/03/16 03:36:55;;;;;;;49.40;32.60;;;;;;;6.74;80.44;100585.34;109004;1256;59304;-62
2024/03/16 03:39:24;;;;;;;49.90;33.40;;;;;;;6.73;80.48;100582.49;108431;1259;138553;-62
2024/03/16 03:41:51;;;;;;;53.50;32.20;;;;;;;6.72;80.48;100582.81;104864;1260;65233;-63
2024/03/16 03:44:20;;;;;;;51.80;34.50;;;;;;;6.71;80.58;100582.77;104801;1256;73474;-64
2024/03/16 03:46:51;;;;;;;53.40;35.20;;;;;;;6.69;80.64;100588.46;104563;1260;138829;-63
2024/03/16 03:49:28;;;;;;;53.90;34.80;;;;;;;6.67;80.81;100583.84;108960;1255;59016;-63
2024/03/16 03:51:58;;;;;;;49.10;33.50;;;;;;;6.63;80.74;100580.56;108857;1257;139039;-63
2024/03/16 03:54:25;;;;;;;56.40;34.40;;;;;;;6.60;80.86;100572.42;105755;1257;64415;-63
2024/03/16 03:56:52;;;;;;;50.60;34.00;;;;;;;6.58;80.87;100570.79;108799;1256;139443;-64
2024/03/16 03:59:19;;;;;;;56.30;35.90;;;;;;;6.57;80.91;100575.96;108862;1255;59182;-64
2024/03/16 04:01:45;;;;;;;58.80;38.20;;;;;;;6.54;80.90;100576.02;108959;1257;60007;-63
2024/03/16 04:04:12;;;;;;;72.60;45.50;;;;;;;6.51;80.94;100574.17;108852;1255;139494;-64
2024/03/16 04:06:41;;;;;;;63.00;44.80;;;;;;;6.49;81.03;100570.96;108988;1256;67256;-64
2024/03/16 04:09:08;;;;;;;59.20;41.80;;;;;;;6.49;81.07;100572.52;108389;1256;139159;-64
2024/03/16 04:11:35;;;;;;;64.00;41.70;;;;;;;6.49;81.14;100573.20;108994;1256;60186;-64
2024/03/16 04:14:01;;;;;;;59.70;41.30;;;;;;;6.47;81.22;100578.36;108973;1255;59915;-62
2024/03/16 04:16:28;;;;;;;60.00;42.00;;;;;;;6.46;81.28;100582.51;108844;1257;138503;-61
2024/03/16 04:18:55;;;;;;;61.10;39.30;;;;;;;6.43;81.30;100578.58;109028;1255;66673;-62
2024/03/16 04:21:24;;;;;;;54.50;37.50;;;;;;;6.42;81.36;100576.98;108859;1256;138638;-62
2024/03/16 04:23:51;;;;;;;55.70;36.60;;;;;;;6.41;81.34;100571.89;108952;1256;60577;-62
2024/03/16 04:26:17;;;;;;;57.30;38.90;;;;;;;6.44;81.68;100567.63;108940;1256;59820;-62
2024/03/16 04:28:44;;;;;;;59.30;38.60;;;;;;;6.52;81.93;100568.80;108844;1256;139176;-64
2024/03/16 04:31:10;;;;;;;52.80;35.40;;;;;;;6.63;82.28;100569.56;108957;1256;67405;-65
2024/03/16 04:33:37;;;;;;;53.90;35.00;;;;;;;6.77;82.49;100567.48;108758;1256;138616;-65
2024/03/16 04:36:04;;;;;;;50.90;34.40;;;;;;;6.89;82.39;100566.16;108846;1256;59316;-65
2024/03/16 04:38:31;;;;;;;52.70;34.90;;;;;;;6.99;82.50;100562.19;108837;1257;138602;-64
2024/03/16 04:40:58;;;;;;;55.60;37.40;;;;;;;7.10;82.32;100560.66;108953;1256;74795;-65
2024/03/16 04:43:24;;;;;;;57.50;36.00;;;;;;;7.18;82.31;100560.95;108791;1259;67421;-64
2024/03/16 04:45:51;;;;;;;55.60;33.30;;;;;;;7.27;82.27;100559.16;108870;1256;138580;-64
2024/03/16 04:48:17;;;;;;;52.10;33.40;;;;;;;7.35;82.12;100559.09;108959;1256;59374;-64
2024/03/16 04:50:44;;;;;;;47.90;32.90;;;;;;;7.42;82.11;100564.92;108934;1256;138785;-65
2024/03/16 04:53:11;;;;;;;48.30;33.80;;;;;;;7.49;82.07;100564.63;108968;1257;75874;-65
2024/03/16 04:55:38;;;;;;;46.10;31.60;;;;;;;7.55;82.07;100571.48;108980;1255;66321;-60
2024/03/16 04:58:07;;;;;;;48.40;32.90;;;;;;;7.58;81.85;100571.77;108824;1257;139436;-60
2024/03/16 05:00:35;;;;;;;47.80;32.60;;;;;;;7.60;81.96;100569.40;108884;1256;60604;-61
2024/03/16 05:03:02;;;;;;;45.70;31.30;;;;;;;7.65;82.03;100567.95;108879;1256;138736;-61
2024/03/16 05:05:29;;;;;;;55.60;35.50;;;;;;;7.71;82.11;100572.20;108867;1256;75848;-61
2024/03/16 05:07:55;;;;;;;46.60;32.60;;;;;;;7.78;82.24;100565.10;108971;1256;64059;-61
2024/03/16 05:10:22;;;;;;;51.40;34.60;;;;;;;7.86;82.32;100561.52;108818;1256;139081;-69
2024/03/16 05:12:49;;;;;;;50.50;32.70;;;;;;;7.92;82.38;100561.02;108846;1257;60107;-68
2024/03/16 05:15:16;;;;;;;48.40;33.00;;;;;;;7.98;82.31;100567.67;108946;1255;138564;-63
2024/03/16 05:17:42;;;;;;;51.60;34.10;;;;;;;8.02;82.36;100572.17;109027;1256;74056;-63
2024/03/16 05:20:10;;;;;;;48.00;33.00;;;;;;;8.08;82.46;100567.83;108978;1256;64998;-62
2024/03/16 05:22:37;;;;;;;50.10;32.30;;;;;;;8.15;82.57;100561.40;108798;1256;138666;-61
2024/03/16 05:25:05;;;;;;;43.50;32.70;;;;;;;8.23;82.53;100560.80;108929;1256;59621;-60
2024/03/16 05:27:32;;;;;;;57.90;37.20;;;;;;;8.31;82.56;100566.44;108756;1256;138902;-61
2024/03/16 05:29:58;;;;;;;54.50;38.10;;;;;;;8.34;82.39;100571.60;109034;1256;74157;-61
2024/03/16 05:32:28;;;;;;;49.60;35.50;;;;;;;8.35;82.45;100570.60;108765;1257;138668;-62
2024/03/16 05:34:55;;;;;;;51.40;35.50;;;;;;;8.40;82.53;100574.95;108954;1256;72872;-61
2024/03/16 05:37:22;;;;;;;49.00;31.80;;;;;;;8.45;82.50;100566.91;108962;1255;59330;-61
2024/03/16 05:39:49;;;;;;;48.40;33.80;;;;;;;8.50;82.57;100569.15;108867;1256;138556;-61
2024/03/16 05:42:15;;;;;;;49.90;33.80;;;;;;;8.55;82.49;100570.55;108999;1256;72726;-61
2024/03/16 05:44:42;;;;;;;46.30;31.80;;;;;;;8.63;82.64;100568.33;105237;1255;138996;-61
2024/03/16 05:47:09;;;;;;;45.90;33.10;;;;;;;8.70;82.59;100563.83;108802;1256;73227;-62
2024/03/16 05:49:37;;;;;;;47.40;33.40;;;;;;;8.77;82.54;100555.98;108982;1256;59320;-62
2024/03/16 05:52:04;;;;;;;47.40;32.80;;;;;;;8.82;82.42;100549.27;104726;1263;138750;-61
2024/03/16 05:54:34;;;;;;;47.00;33.60;;;;;;;8.87;82.25;100549.62;104822;1259;73568;-61
2024/03/16 05:57:01;;;;;;;48.30;32.20;;;;;;;8.92;82.27;100546.08;108839;1256;139443;-62
2024/03/16 05:59:28;;;;;;;46.10;33.90;;;;;;;8.97;82.22;100554.96;109024;1255;73754;-62
2024/03/16 06:01:55;;;;;;;51.30;35.20;;;;;;;9.04;82.24;100553.74;108928;1255;60672;-63
2024/03/16 06:04:21;;;;;;;54.10;35.00;;;;;;;9.09;82.22;100567.75;108436;1256;143181;-61
2024/03/16 06:06:48;;;;;;;55.50;36.40;;;;;;;9.15;82.16;100563.52;108832;1256;74237;-61
2024/03/16 06:09:15;;;;;;;52.40;37.30;;;;;;;9.23;82.18;100564.08;108892;1255;139339;-62
2024/03/16 06:11:41;;;;;;;52.90;37.00;;;;;;;9.33;82.23;100567.69;108827;1255;72487;-63
2024/03/16 06:14:10;;;;;;;52.50;35.30;;;;;;;9.42;82.09;100572.66;108975;1255;59933;-62
2024/03/16 06:16:37;;;;;;;47.10;34.60;;;;;;;9.50;81.95;100572.52;108880;1256;139000;-62
2024/03/16 06:19:05;;;;;;;46.20;32.20;;;;;;;9.60;82.00;100569.95;108929;1256;75181;-62
2024/03/16 06:21:31;;;;;;;49.80;35.10;;;;;;;9.69;81.95;100573.73;108878;1256;138571;-62
2024/03/16 06:24:03;;;;;;;44.90;32.00;;;;;;;9.75;81.72;100571.75;108793;1255;73873;-62
2024/03/16 06:26:36;;;;;;;46.00;32.70;;;;;;;9.78;81.73;100576.23;108674;1256;138704;-62
2024/03/16 06:29:06;;;;;;;45.20;32.50;;;;;;;9.79;81.51;100576.59;108974;1255;60683;-62
2024/03/16 06:31:35;;;;;;;44.00;32.80;;;;;;;9.82;81.47;100574.02;108979;1256;76568;-62
2024/03/16 06:34:04;;;;;;;48.00;34.40;;;;;;;9.85;81.45;100585.33;105573;1256;139128;-62
2024/03/16 06:36:32;;;;;;;48.10;34.30;;;;;;;9.90;81.56;100590.36;108936;1256;73179;-63
2024/03/16 06:39:06;;;;;;;61.90;42.40;;;;;;;9.93;81.56;100587.99;108891;1256;138642;-62
2024/03/16 06:41:33;;;;;;;51.40;34.80;;;;;;;9.99;81.66;100591.63;108849;1255;60379;-63
2024/03/16 06:43:59;;;;;;;56.90;36.00;;;;;;;10.06;81.95;100587.77;108960;1256;74062;-62
2024/03/16 06:46:26;;;;;;;49.50;31.20;;;;;;;10.14;82.00;100589.54;108873;1256;139011;-62
2024/03/16 06:48:52;;;;;;;40.60;29.50;;;;;;;10.19;81.95;100587.92;108941;1256;71352;-62
2024/03/16 06:51:19;;;;;;;40.10;29.10;;;;;;;10.21;82.01;100581.64;108915;1256;138920;-62
2024/03/16 06:53:47;;;;;;;42.40;29.10;;;;;;;10.22;82.05;100568.16;108986;1256;59510;-63
2024/03/16 06:56:14;;;;;;;40.30;29.10;;;;;;;10.20;82.14;100575.14;108976;1255;75898;-63
2024/03/16 06:58:40;;;;;;;49.60;33.70;;;;;;;10.21;82.28;100583.07;108855;1256;138887;-63
2024/03/16 07:01:11;;;;;;;52.80;34.90;;;;;;;10.17;82.32;100562.44;109003;1256;72094;-63
2024/03/16 07:03:39;;;;;;;39.70;30.40;;;;;;;10.11;82.32;100558.44;108866;1256;138696;-62
2024/03/16 07:06:09;;;;;;;39.40;29.20;;;;;;;10.06;82.39;100579.37;108995;1256;60492;-62
2024/03/16 07:08:38;;;;;;;46.40;32.20;;;;;;;10.04;82.44;100595.25;108866;1256;139059;-62
2024/03/16 07:11:05;;;;;;;49.20;32.70;;;;;;;10.02;82.51;100612.05;109003;1255;66288;-62
2024/03/16 07:13:32;;;;;;;46.80;32.30;;;;;;;10.02;82.65;100618.20;108904;1256;71423;-62
2024/03/16 07:15:59;;;;;;;49.10;33.00;;;;;;;10.07;82.85;100612.88;108889;1256;139334;-62
2024/03/16 07:18:25;;;;;;;41.10;29.90;;;;;;;10.12;82.91;100619.48;109008;1256;59669;-62
2024/03/16 07:20:52;;;;;;;44.20;28.50;;;;;;;10.16;82.86;100612.90;107509;1256;138871;-62
2024/03/16 07:23:19;;;;;;;46.30;29.60;;;;;;;10.19;82.84;100611.39;104738;1259;66513;-62
2024/03/16 07:25:51;;;;;;;43.20;30.20;;;;;;;10.20;82.88;100612.66;104992;1259;72753;-62
2024/03/16 07:28:18;;;;;;;40.20;28.00;;;;;;;10.22;82.99;100608.52;104754;1256;139280;-60
2024/03/16 07:30:45;;;;;;;43.20;28.10;;;;;;;10.25;83.04;100610.33;104833;1260;61137;-62
2024/03/16 07:33:13;;;;;;;42.10;27.30;;;;;;;10.28;83.12;100610.92;104650;1256;138954;-62
2024/03/16 07:35:40;;;;;;;35.00;25.60;;;;;;;10.30;82.98;100606.44;104809;1256;65827;-62
2024/03/16 07:38:06;;;;;;;33.60;24.40;;;;;;;10.31;83.13;100605.77;104936;1256;72280;-62
2024/03/16 07:40:33;;;;;;;29.30;21.50;;;;;;;10.34;83.23;100608.13;104285;1256;139473;-62
2024/03/16 07:43:01;;;;;;;28.90;21.20;;;;;;;10.39;83.39;100605.61;104331;1256;61267;-61
2024/03/16 07:45:27;;;;;;;30.00;21.60;;;;;;;10.51;83.58;100604.47;104680;1260;139169;-62
2024/03/16 07:47:54;;;;;;;25.40;19.60;;;;;;;10.68;83.86;100602.40;104970;1259;61365;-63
2024/03/16 07:50:21;;;;;;;25.00;19.60;;;;;;;10.90;84.15;100600.23;104674;1262;71799;-62
2024/03/16 07:52:47;;;;;;;27.00;19.30;;;;;;;11.13;84.18;100602.84;104741;1256;138767;-63
2024/03/16 07:55:14;;;;;;;27.20;19.70;;;;;;;11.36;84.20;100600.13;104877;1260;61188;-60
2024/03/16 07:57:40;;;;;;;24.90;18.90;;;;;;;11.59;84.08;100597.73;104854;1256;139185;-62
2024/03/16 08:00:10;;;;;;;26.50;19.10;;;;;;;11.80;83.93;100599.87;104934;1256;67437;-62
2024/03/16 08:02:37;;;;;;;24.80;19.60;;;;;;;12.02;83.68;100604.50;104569;1256;139008;-62
2024/03/16 08:05:04;;;;;;;25.40;19.30;;;;;;;12.24;83.49;100600.81;104554;1256;61356;-62
2024/03/16 08:07:31;;;;;;;26.80;19.30;;;;;;;12.46;83.21;100598.13;108933;1255;59776;-63
2024/03/16 08:09:57;;;;;;;24.60;19.70;;;;;;;12.64;82.90;100600.00;108891;1256;138627;-61
2024/03/16 08:12:24;;;;;;;27.10;20.80;;;;;;;12.84;82.69;100599.20;109018;1256;65851;-58
2024/03/16 08:14:50;;;;;;;25.20;19.20;;;;;;;13.07;82.47;100603.20;108873;1255;138898;-64
2024/03/16 08:17:17;;;;;;;25.40;19.20;;;;;;;13.20;82.06;100608.11;108913;1256;59194;-64
2024/03/16 08:19:43;;;;;;;22.90;19.90;;;;;;;13.33;81.74;100611.83;108947;1256;59654;-66
2024/03/16 08:22:10;;;;;;;22.20;19.00;;;;;;;13.42;81.21;100614.05;108917;1256;138396;-67
2024/03/16 08:24:37;;;;;;;26.40;19.50;;;;;;;13.45;80.89;100618.84;108878;1256;66393;-67
2024/03/16 08:27:03;;;;;;;21.30;17.50;;;;;;;13.46;80.63;100622.02;105238;1257;138708;-68
2024/03/16 08:29:30;;;;;;;23.40;19.30;;;;;;;13.49;80.64;100623.11;104629;1257;61298;-66
2024/03/16 08:31:58;;;;;;;24.50;19.60;;;;;;;13.54;80.60;100624.23;104727;1257;61190;-67
2024/03/16 08:34:25;;;;;;;21.90;17.10;;;;;;;13.61;80.47;100620.08;104810;1256;139003;-66
2024/03/16 08:36:51;;;;;;;21.30;18.30;;;;;;;13.69;80.51;100615.38;104580;1256;320710;-66
2024/03/16 08:39:18;;;;;;;25.30;19.70;;;;;;;13.79;80.52;100612.31;104638;1260;139534;-66
2024/03/16 08:41:45;;;;;;;24.20;19.50;;;;;;;13.95;80.60;100610.34;104668;1256;61271;-67
2024/03/16 08:44:12;;;;;;;24.30;18.40;;;;;;;14.10;80.44;100605.01;104745;1256;61257;-66
2024/03/16 08:46:38;;;;;;;20.80;18.30;;;;;;;14.18;80.04;100601.55;104600;1260;138446;-66
2024/03/16 08:49:07;;;;;;;24.90;19.80;;;;;;;14.22;79.81;100599.98;104638;1259;67289;-65
2024/03/16 08:51:33;;;;;;;24.80;20.20;;;;;;;14.31;79.77;100596.86;104663;1259;137980;-61
2024/03/16 08:54:00;;;;;;;23.90;20.50;;;;;;;14.41;79.81;100598.17;104764;1257;61437;-63
2024/03/16 08:56:28;;;;;;;24.10;19.20;;;;;;;14.51;79.69;100594.36;104499;1256;138168;-63
2024/03/16 08:58:55;;;;;;;25.50;20.20;;;;;;;14.63;79.57;100593.04;104699;1256;74521;-64
2024/03/16 09:01:21;;;;;;;22.40;17.90;;;;;;;14.82;79.77;100591.75;104740;1259;66208;-64
2024/03/16 09:03:48;;;;;;;20.80;17.80;;;;;;;15.00;79.58;100584.40;104656;1259;138690;-64
2024/03/16 09:06:15;;;;;;;21.00;17.80;;;;;;;15.12;79.10;100587.45;104755;1256;62032;-64
2024/03/16 09:08:42;;;;;;;26.50;19.50;;;;;;;15.17;78.52;100582.52;104576;1260;138873;-64
2024/03/16 09:11:09;;;;;;;21.10;18.20;;;;;;;15.28;78.55;100587.34;104598;1256;74102;-63
2024/03/16 09:13:36;;;;;;;18.30;16.30;;;;;;;15.41;78.15;100587.02;104551;1255;65290;-64
2024/03/16 09:16:05;;;;;;;22.20;17.70;;;;;;;15.40;77.55;100584.02;104395;1256;138639;-64
2024/03/16 09:18:33;;;;;;;24.80;19.20;;;;;;;15.45;77.73;100579.25;106219;1259;61241;-68
2024/03/16 09:21:01;;;;;;;25.40;19.70;;;;;;;15.56;77.64;100580.86;106963;1256;138172;-67
2024/03/16 09:23:28;;;;;;;20.90;17.80;;;;;;;15.71;77.71;100581.60;106694;1258;74475;-68
2024/03/16 09:25:56;;;;;;;20.70;17.70;;;;;;;15.90;77.55;100583.77;104366;1259;67302;-67
2024/03/16 09:28:22;;;;;;;21.50;18.40;;;;;;;16.02;77.33;100581.45;108231;1256;137992;-68
2024/03/16 09:30:49;;;;;;;18.50;16.40;;;;;;;16.18;77.25;100584.30;105821;1256;61376;-68
2024/03/16 09:33:15;;;;;;;21.30;18.80;;;;;;;16.32;77.08;100579.86;104104;1257;138980;-68
2024/03/16 09:35:42;;;;;;;18.70;16.70;;;;;;;16.46;76.71;100583.38;104164;1259;75294;-68
2024/03/16 09:38:10;;;;;;;21.10;17.30;;;;;;;16.57;76.53;100584.05;104421;1258;65819;-69
2024/03/16 09:40:39;;;;;;;19.70;17.50;;;;;;;16.68;76.20;100576.77;104565;1256;138183;-68
2024/03/16 09:43:07;;;;;;;21.10;17.50;;;;;;;16.77;76.01;100574.09;105426;1259;61341;-65
2024/03/16 09:45:34;;;;;;;29.40;23.00;;;;;;;16.93;76.00;100571.94;104101;1256;138264;-64
2024/03/16 09:48:01;;;;;;;26.80;19.90;;;;;;;17.05;75.59;100572.59;103901;1257;75009;-64
2024/03/16 09:50:29;;;;;;;13.60;12.20;;;;;;;17.09;74.83;100577.70;103698;1256;140814;-63
2024/03/16 09:52:56;;;;;;;12.50;10.90;;;;;;;17.04;74.21;100577.91;103736;1259;74010;-65
2024/03/16 09:55:25;;;;;;;13.90;12.10;;;;;;;17.05;74.01;100579.33;103824;1261;61236;-65
2024/03/16 09:57:52;;;;;;;15.90;11.30;;;;;;;17.12;73.86;100577.52;104317;1257;138402;-65
2024/03/16 10:00:21;;;;;;;11.10;9.90;;;;;;;17.22;73.85;100576.40;104005;1260;74412;-64
2024/03/16 10:02:49;;;;;;;11.60;10.00;;;;;;;17.29;73.50;100572.30;107966;1256;138623;-64
2024/03/16 10:05:17;;;;;;;13.00;9.90;;;;;;;17.29;73.09;100570.52;108109;1256;73289;-65
2024/03/16 10:07:46;;;;;;;11.10;9.90;;;;;;;17.21;72.62;100567.55;108446;1256;59112;-65
2024/03/16 10:10:15;;;;;;;17.50;11.50;;;;;;;17.11;72.45;100565.83;108384;1256;137929;-64
2024/03/16 10:12:42;;;;;;;15.10;12.80;;;;;;;17.20;73.03;100566.67;108337;1256;73315;-64
2024/03/16 10:15:09;;;;;;;27.30;15.50;;;;;;;17.40;72.84;100566.20;108420;1256;138274;-64
2024/03/16 10:17:36;;;;;;;16.50;11.80;;;;;;;17.53;72.51;100568.95;104688;1261;72778;-69
2024/03/16 10:20:16;;;;;;;13.40;11.10;;;;;;;17.55;72.00;100563.80;104745;1259;61249;-69
2024/03/16 10:22:44;;;;;;;11.80;9.40;;;;;;;17.64;71.92;100567.10;104447;1263;138148;-68
2024/03/16 10:25:11;;;;;;;9.50;8.50;;;;;;;17.67;71.60;100564.59;104634;1256;75277;-69
2024/03/16 10:27:42;;;;;;;17.50;12.60;;;;;;;17.65;71.38;100561.95;104019;1256;137840;-68
2024/03/16 10:30:12;;;;;;;14.00;8.90;;;;;;;17.62;71.18;100566.77;104213;1260;73020;-69
2024/03/16 10:32:49;;;;;;;25.80;17.70;;;;;;;17.56;70.85;100567.33;104150;1257;138200;-69
2024/03/16 10:35:20;;;;;;;15.10;11.80;;;;;;;17.49;70.73;100568.28;104427;1259;61351;-68
2024/03/16 10:37:47;;;;;;;10.00;7.90;;;;;;;17.38;70.42;100567.80;105331;1257;75587;-68
2024/03/16 10:40:16;;;;;;;9.70;8.80;;;;;;;17.24;70.27;100567.35;104574;1257;137944;-68
2024/03/16 10:42:53;;;;;;;10.70;9.60;;;;;;;17.04;70.16;100569.39;104752;1257;73290;-68
2024/03/16 10:45:23;;;;;;;8.90;7.30;;;;;;;16.86;70.16;100572.30;104362;1256;137955;-68
2024/03/16 10:47:51;;;;;;;13.20;8.60;;;;;;;16.76;70.44;100570.55;104399;1256;61485;-68
2024/03/16 10:50:24;;;;;;;15.10;12.40;;;;;;;16.73;70.55;100573.74;104506;1256;74669;-68
2024/03/16 10:52:52;;;;;;;15.20;11.70;;;;;;;16.71;70.48;100570.90;104307;1256;70069;-68
2024/03/16 10:55:23;;;;;;;22.40;18.00;;;;;;;16.64;70.40;100579.08;104308;1256;71757;-67
2024/03/16 10:57:53;;;;;;;29.60;24.90;;;;;;;16.51;70.49;100578.92;108310;1256;138598;-68
2024/03/16 11:00:23;;;;;;;13.30;11.90;;;;;;;16.44;70.62;100580.01;107295;1256;61306;-68
2024/03/16 11:03:07;;;;;;;43.90;36.90;;;;;;;16.33;70.55;100580.91;104129;1257;139872;-68
2024/03/16 11:05:35;;;;;;;41.10;35.20;;;;;;;16.24;70.68;100580.22;104590;1260;67196;-68